createdAt,value
2022-12-08T00:00:53.011Z,-1.20
2022-12-08T00:03:20.030Z,-1.20
2022-12-08T00:06:08.784Z,-1.10
2022-12-08T00:08:54.014Z,-1.30
2022-12-08T00:11:20.890Z,-1.00
2022-12-08T00:13:47.761Z,-1.00
2022-12-08T00:16:14.665Z,-1.00
2022-12-08T00:18:41.632Z,-1.00
2022-12-08T00:21:08.454Z,-0.90
2022-12-08T00:23:35.262Z,-1.00
2022-12-08T00:26:05.554Z,-1.00
2022-12-08T00:28:33.050Z,-1.00
2022-12-08T00:30:59.873Z,-0.90
2022-12-08T00:33:28.272Z,-1.00
2022-12-08T00:35:55.158Z,-0.70
2022-12-08T00:38:21.973Z,-1.00
2022-12-08T00:40:48.793Z,-1.00
2022-12-08T00:43:15.679Z,-1.00
2022-12-08T00:45:43.228Z,-1.00
2022-12-08T00:48:11.048Z,-1.00
2022-12-08T00:50:37.886Z,-1.10
2022-12-08T00:53:07.655Z,-1.10
2022-12-08T00:55:35.302Z,-1.10
2022-12-08T00:58:02.204Z,-1.10
2022-12-08T01:00:29.022Z,-1.20
2022-12-08T01:02:55.950Z,0.80
2022-12-08T01:05:22.865Z,-1.30
2022-12-08T01:07:49.766Z,-1.30
2022-12-08T01:10:17.027Z,-1.40
2022-12-08T01:12:43.836Z,-0.30
2022-12-08T01:15:10.758Z,-1.60
2022-12-08T01:17:38.118Z,-1.50
2022-12-08T01:20:06.139Z,-1.50
2022-12-08T01:22:34.942Z,-1.50
2022-12-08T01:25:02.453Z,-1.60
2022-12-08T01:27:29.292Z,1.60
2022-12-08T01:29:56.283Z,0.70
2022-12-08T01:32:23.116Z,-1.70
2022-12-08T01:34:49.922Z,-1.70
2022-12-08T01:37:17.097Z,-1.70
2022-12-08T01:39:43.960Z,-1.70
2022-12-08T01:42:21.203Z,-1.70
2022-12-08T01:45:02.898Z,-1.80
2022-12-08T01:47:41.746Z,-1.80
2022-12-08T01:50:10.361Z,-1.80
2022-12-08T01:52:42.397Z,-1.80
2022-12-08T01:55:20.823Z,-1.80
2022-12-08T01:57:49.267Z,-1.90
2022-12-08T02:00:17.837Z,-1.90
2022-12-08T02:03:03.959Z,-1.80
2022-12-08T02:05:33.169Z,-1.80
2022-12-08T02:08:01.537Z,-1.80
2022-12-08T02:10:29.911Z,-1.90
2022-12-08T02:12:57.144Z,-1.90
2022-12-08T02:15:48.616Z,-1.90
2022-12-08T02:18:39.779Z,-1.90
2022-12-08T02:21:24.865Z,-2.00
2022-12-08T02:24:11.567Z,-2.00
2022-12-08T02:26:56.209Z,-2.00
2022-12-08T02:29:38.130Z,-2.00
2022-12-08T02:32:38.286Z,-2.00
2022-12-08T02:35:14.806Z,-2.00
2022-12-08T02:37:54.305Z,-2.00
2022-12-08T02:40:36.457Z,-2.00
2022-12-08T02:43:07.262Z,-2.00
2022-12-08T02:45:35.234Z,0.30
2022-12-08T02:48:02.041Z,-2.00
2022-12-08T02:50:28.851Z,-2.10
2022-12-08T02:52:55.716Z,-1.80
2022-12-08T02:55:48.469Z,-2.20
2022-12-08T02:58:30.252Z,-2.20
2022-12-08T03:01:04.820Z,-2.20
2022-12-08T03:03:54.969Z,-2.20
2022-12-08T03:06:32.585Z,-2.20
2022-12-08T03:09:08.693Z,-2.20
2022-12-08T03:11:48.577Z,-2.20
2022-12-08T03:14:17.277Z,-2.20
2022-12-08T03:16:46.434Z,-2.20
2022-12-08T03:19:21.639Z,-2.20
2022-12-08T03:21:50.641Z,-1.20
2022-12-08T03:24:17.787Z,-2.20
2022-12-08T03:26:57.706Z,-2.00
2022-12-08T03:29:24.547Z,-2.10
2022-12-08T03:31:57.861Z,-2.20
2022-12-08T03:34:26.296Z,-2.00
2022-12-08T03:36:53.103Z,-2.00
2022-12-08T03:39:19.925Z,-1.90
2022-12-08T03:41:46.809Z,-2.80
2022-12-08T03:44:13.611Z,-2.00
2022-12-08T03:46:40.376Z,-1.80
2022-12-08T03:49:07.149Z,-1.70
2022-12-08T03:51:33.942Z,-1.80
2022-12-08T03:54:00.838Z,-1.60
2022-12-08T03:56:29.903Z,-1.50
2022-12-08T03:58:56.812Z,-1.50
2022-12-08T04:01:23.798Z,-1.50
2022-12-08T04:03:50.774Z,-1.60
2022-12-08T04:06:17.742Z,-1.40
2022-12-08T04:08:44.602Z,-1.40
2022-12-08T04:11:11.474Z,-1.30
2022-12-08T04:13:38.964Z,-1.30
2022-12-08T04:16:06.313Z,-1.30
2022-12-08T04:18:33.801Z,-1.20
2022-12-08T04:21:00.672Z,1.70
2022-12-08T04:23:27.555Z,-1.20
2022-12-08T04:25:54.409Z,-1.10
2022-12-08T04:28:21.819Z,-1.10
2022-12-08T04:30:49.282Z,-1.10
2022-12-08T04:33:16.323Z,-1.00
2022-12-08T04:35:43.152Z,-1.00
2022-12-08T04:38:10.007Z,-1.00
2022-12-08T04:40:36.845Z,-0.90
2022-12-08T04:43:03.653Z,-0.90
2022-12-08T04:45:30.694Z,0.80
2022-12-08T04:48:01.351Z,-1.00
2022-12-08T04:50:28.268Z,-0.80
2022-12-08T04:52:55.093Z,-0.80
2022-12-08T04:55:21.863Z,-0.70
2022-12-08T04:57:48.647Z,-0.80
2022-12-08T05:00:15.847Z,-0.70
2022-12-08T05:02:42.768Z,-0.70
2022-12-08T05:05:10.360Z,-0.60
2022-12-08T05:07:37.218Z,-0.80
2022-12-08T05:10:04.909Z,-0.80
2022-12-08T05:12:31.902Z,-0.60
2022-12-08T05:14:58.680Z,-0.50
2022-12-08T05:17:25.556Z,1.10
2022-12-08T05:19:52.361Z,-0.50
2022-12-08T05:22:19.136Z,1.50
2022-12-08T05:24:47.833Z,0.10
2022-12-08T05:27:15.041Z,-0.40
2022-12-08T05:29:42.039Z,2.40
2022-12-08T05:32:08.950Z,-0.50
2022-12-08T05:34:35.824Z,-0.40
2022-12-08T05:37:02.625Z,-0.30
2022-12-08T05:39:29.389Z,-0.30
2022-12-08T05:41:56.206Z,0.70
2022-12-08T05:44:22.976Z,-0.30
2022-12-08T05:46:50.230Z,-0.30
2022-12-08T05:49:17.027Z,-0.30
2022-12-08T05:51:43.973Z,-0.30
2022-12-08T05:54:10.749Z,-0.30
2022-12-08T05:56:37.532Z,-0.30
2022-12-08T05:59:07.389Z,-0.30
2022-12-08T06:01:34.447Z,-0.30
2022-12-08T06:04:02.300Z,-0.30
2022-12-08T06:06:29.180Z,-0.40
2022-12-08T06:08:55.996Z,-0.40
2022-12-08T06:11:27.439Z,-0.40
2022-12-08T06:13:54.587Z,-0.40
2022-12-08T06:16:21.504Z,-0.50
2022-12-08T06:18:48.494Z,-0.40
2022-12-08T06:21:15.560Z,-0.40
2022-12-08T06:23:42.547Z,-0.40
2022-12-08T06:26:11.722Z,-0.50
2022-12-08T06:28:38.768Z,-0.40
2022-12-08T06:31:11.057Z,-0.40
2022-12-08T06:33:37.999Z,-0.50
2022-12-08T06:36:05.779Z,-0.40
2022-12-08T06:38:32.746Z,-0.40
2022-12-08T06:40:59.659Z,-0.40
2022-12-08T06:43:26.534Z,-0.50
2022-12-08T06:45:53.519Z,-0.60
2022-12-08T06:48:20.376Z,-0.40
2022-12-08T06:50:47.142Z,-0.40
2022-12-08T06:53:15.080Z,-0.40
2022-12-08T06:56:01.070Z,-0.40
2022-12-08T06:58:27.935Z,-0.40
2022-12-08T07:00:55.031Z,-0.40
2022-12-08T07:03:21.915Z,-0.40
2022-12-08T07:05:48.731Z,-0.50
2022-12-08T07:08:15.693Z,-0.30
2022-12-08T07:10:42.577Z,1.50
2022-12-08T07:13:09.412Z,-0.30
2022-12-08T07:15:36.245Z,-0.50
2022-12-08T07:18:03.083Z,-0.60
2022-12-08T07:20:29.881Z,-0.30
2022-12-08T07:22:56.784Z,-0.30
2022-12-08T07:25:23.658Z,-0.40
2022-12-08T07:27:51.745Z,-0.40
2022-12-08T07:30:18.836Z,-0.60
2022-12-08T07:32:45.671Z,-0.40
2022-12-08T07:35:12.577Z,-0.40
2022-12-08T07:37:39.553Z,-0.50
2022-12-08T07:40:07.675Z,-0.50
2022-12-08T07:42:34.693Z,-0.50
2022-12-08T07:45:01.467Z,2.60
2022-12-08T07:47:28.310Z,2.00
2022-12-08T07:49:55.052Z,-0.80
2022-12-08T07:52:21.910Z,-0.70
2022-12-08T07:54:48.748Z,-1.00
2022-12-08T07:57:15.537Z,-0.90
2022-12-08T07:59:42.358Z,-1.10
2022-12-08T08:02:25.990Z,-1.00
2022-12-08T08:04:53.431Z,-0.90
2022-12-08T08:07:20.385Z,-1.20
2022-12-08T08:09:47.221Z,-1.00
2022-12-08T08:12:30.623Z,-0.90
2022-12-08T08:14:58.033Z,2.10
2022-12-08T08:17:24.971Z,-1.00
2022-12-08T08:19:51.800Z,-1.20
2022-12-08T08:22:18.604Z,-1.10
2022-12-08T08:24:45.469Z,-1.10
2022-12-08T08:27:12.479Z,-1.10
2022-12-08T08:29:39.321Z,-1.10
2022-12-08T08:32:06.145Z,-1.10
2022-12-08T08:34:33.065Z,-1.00
2022-12-08T08:36:59.921Z,-1.10
2022-12-08T08:39:26.846Z,-1.00
2022-12-08T08:41:53.668Z,-0.90
2022-12-08T08:44:20.441Z,-0.90
2022-12-08T08:46:47.344Z,-0.90
2022-12-08T08:49:14.258Z,0.90
2022-12-08T08:51:41.154Z,-0.80
2022-12-08T08:54:07.985Z,-0.80
2022-12-08T08:56:34.749Z,2.00
2022-12-08T08:59:02.994Z,-0.70
2022-12-08T09:01:29.985Z,-0.70
2022-12-08T09:03:57.033Z,-0.70
2022-12-08T09:06:24.195Z,-0.70
2022-12-08T09:08:51.053Z,-0.70
2022-12-08T09:11:20.646Z,-0.80
2022-12-08T09:13:49.537Z,-0.70
2022-12-08T09:16:16.866Z,1.20
2022-12-08T09:18:43.737Z,-0.70
2022-12-08T09:21:16.764Z,-0.90
2022-12-08T09:23:44.139Z,-0.80
2022-12-08T09:26:10.998Z,-0.70
2022-12-08T09:28:38.061Z,-0.60
2022-12-08T09:31:05.038Z,-0.60
2022-12-08T09:33:33.148Z,-0.50
2022-12-08T09:36:03.870Z,-0.50
2022-12-08T09:38:30.902Z,-0.40
2022-12-08T09:40:57.682Z,-0.40
2022-12-08T09:43:45.781Z,-0.30
2022-12-08T09:46:14.827Z,-0.10
2022-12-08T09:48:55.518Z,3.30
2022-12-08T09:51:26.556Z,0.10
2022-12-08T09:54:16.959Z,0.20
2022-12-08T09:56:43.967Z,0.30
2022-12-08T09:59:23.921Z,0.40
2022-12-08T10:01:51.068Z,0.50
2022-12-08T10:04:24.124Z,0.70
2022-12-08T10:07:12.317Z,0.80
2022-12-08T10:09:50.209Z,1.00
2022-12-08T10:12:21.963Z,1.10
2022-12-08T10:15:03.955Z,1.20
2022-12-08T10:17:38.104Z,1.40
2022-12-08T10:20:27.107Z,1.50
2022-12-08T10:23:05.714Z,1.60
2022-12-08T10:25:43.301Z,1.70
2022-12-08T10:28:10.516Z,1.70
2022-12-08T10:30:37.446Z,1.70
2022-12-08T10:33:04.318Z,1.70
2022-12-08T10:35:45.923Z,2.30
2022-12-08T10:38:29.970Z,1.80
2022-12-08T10:41:07.167Z,1.90
2022-12-08T10:43:33.945Z,1.90
2022-12-08T10:46:11.574Z,3.20
2022-12-08T10:48:41.753Z,2.00
2022-12-08T10:51:09.845Z,2.10
2022-12-08T10:53:45.181Z,4.60
2022-12-08T10:56:15.411Z,2.10
2022-12-08T10:58:45.103Z,2.10
2022-12-08T11:01:21.917Z,2.10
2022-12-08T11:03:55.738Z,2.10
2022-12-08T11:06:28.822Z,2.10
2022-12-08T11:08:57.904Z,4.50
2022-12-08T11:11:44.977Z,4.20
2022-12-08T11:14:19.017Z,4.10
2022-12-08T11:16:46.059Z,2.00
2022-12-08T11:19:17.800Z,1.90
2022-12-08T11:21:46.011Z,4.60
2022-12-08T11:24:37.381Z,3.60
2022-12-08T11:27:05.171Z,1.90
2022-12-08T11:29:33.224Z,1.90
2022-12-08T11:32:02.793Z,2.40
2022-12-08T11:34:41.601Z,1.90
2022-12-08T11:37:14.069Z,1.90
2022-12-08T11:39:43.813Z,1.80
2022-12-08T11:42:11.596Z,1.90
2022-12-08T11:44:45.972Z,1.90
2022-12-08T11:47:18.341Z,2.00
2022-12-08T11:52:26.629Z,1.90
2022-12-08T11:55:16.819Z,1.90
2022-12-08T11:57:43.656Z,4.60
2022-12-08T12:00:17.973Z,1.60
2022-12-08T12:02:48.411Z,1.80
2022-12-08T12:06:09.177Z,1.80
2022-12-08T12:08:54.921Z,1.70
2022-12-08T12:11:56.183Z,1.80
2022-12-08T12:14:41.648Z,1.80
2022-12-08T12:17:31.714Z,2.80
2022-12-08T12:19:59.538Z,1.90
2022-12-08T12:22:26.296Z,2.00
2022-12-08T12:24:53.094Z,2.00
2022-12-08T12:27:32.952Z,2.10
2022-12-08T12:30:04.745Z,2.10
2022-12-08T12:32:46.139Z,2.20
2022-12-08T12:35:24.051Z,2.30
2022-12-08T12:37:56.746Z,2.30
2022-12-08T12:40:24.745Z,2.30
2022-12-08T12:42:57.544Z,2.40
2022-12-08T12:45:25.978Z,2.20
2022-12-08T12:47:56.928Z,2.50
2022-12-08T12:50:43.455Z,2.50
2022-12-08T12:53:16.473Z,2.60
2022-12-08T12:55:46.512Z,2.70
2022-12-08T12:58:20.495Z,2.50
2022-12-08T13:00:47.257Z,2.70
2022-12-08T13:03:15.189Z,2.80
2022-12-08T13:05:49.337Z,5.20
2022-12-08T13:08:23.858Z,2.90
2022-12-08T13:11:05.655Z,2.90
2022-12-08T13:13:32.488Z,3.00
2022-12-08T13:16:18.597Z,6.10
2022-12-08T13:18:50.329Z,3.10
2022-12-08T13:21:19.867Z,3.40
2022-12-08T13:23:50.429Z,5.80
2022-12-08T13:26:24.421Z,3.30
2022-12-08T13:29:06.253Z,3.30
2022-12-08T13:31:51.223Z,5.90
2022-12-08T13:34:19.892Z,3.40
2022-12-08T13:37:15.802Z,3.40
2022-12-08T13:39:44.081Z,3.50
2022-12-08T13:42:31.063Z,3.50
2022-12-08T13:45:27.964Z,3.50
2022-12-08T13:48:26.713Z,3.50
2022-12-08T13:57:11.607Z,3.40
2022-12-08T13:59:43.593Z,3.30
2022-12-08T14:02:18.855Z,5.00
2022-12-08T14:05:16.927Z,6.50
2022-12-08T14:07:34.006Z,3.20
2022-12-08T14:10:03.488Z,3.10
2022-12-08T14:12:30.350Z,3.10
2022-12-08T14:15:15.499Z,3.00
2022-12-08T14:17:54.686Z,3.70
2022-12-08T14:20:26.725Z,2.90
2022-12-08T14:22:53.685Z,2.90
2022-12-08T14:25:20.794Z,2.80
2022-12-08T14:27:47.833Z,5.00
2022-12-08T14:30:14.852Z,2.60
2022-12-08T14:32:48.401Z,2.50
2022-12-08T14:35:25.557Z,2.40
2022-12-08T14:37:58.585Z,2.30
2022-12-08T14:40:35.310Z,2.20
2022-12-08T14:43:08.728Z,2.00
2022-12-08T14:45:44.654Z,1.90
2022-12-08T14:48:23.321Z,1.80
2022-12-08T14:50:59.238Z,1.60
2022-12-08T14:53:26.137Z,1.50
2022-12-08T14:55:52.944Z,2.50
2022-12-08T14:58:28.884Z,1.30
2022-12-08T15:00:59.133Z,1.10
2022-12-08T15:03:29.467Z,1.10
2022-12-08T15:06:04.568Z,1.10
2022-12-08T15:08:31.440Z,1.00
2022-12-08T15:11:23.735Z,0.90
2022-12-08T15:13:51.803Z,0.80
2022-12-08T15:16:32.054Z,1.20
2022-12-08T15:19:16.961Z,0.70
2022-12-08T15:21:44.087Z,0.70
2022-12-08T15:24:12.395Z,0.60
2022-12-08T15:26:42.075Z,0.50
2022-12-08T15:29:20.851Z,0.50
2022-12-08T15:31:47.818Z,0.40
2022-12-08T15:34:14.680Z,0.40
2022-12-08T15:36:45.765Z,1.60
2022-12-08T15:39:32.053Z,0.20
2022-12-08T15:41:59.271Z,0.20
2022-12-08T15:44:26.154Z,2.60
2022-12-08T15:46:53.016Z,0.10
2022-12-08T15:49:21.679Z,0.00
2022-12-08T15:51:48.620Z,1.10
2022-12-08T15:54:15.436Z,0.00
2022-12-08T15:57:10.845Z,-0.10
2022-12-08T15:59:33.919Z,-0.10
2022-12-08T16:02:00.799Z,-0.20
2022-12-08T16:05:17.917Z,-0.20
2022-12-08T16:07:28.067Z,-0.30
2022-12-08T16:09:55.495Z,-0.40
2022-12-08T16:15:51.672Z,-0.40
2022-12-08T16:18:23.916Z,-0.40
2022-12-08T16:21:12.491Z,-0.60
2022-12-08T16:23:45.664Z,2.20
2022-12-08T16:27:01.042Z,1.00
2022-12-08T16:29:07.070Z,-0.50
2022-12-08T16:31:34.095Z,-0.60
2022-12-08T16:34:01.035Z,-0.70
2022-12-08T16:36:27.861Z,-0.60
2022-12-08T16:38:54.669Z,-0.70
2022-12-08T16:41:40.240Z,-0.90
2022-12-08T16:44:07.095Z,-0.70
2022-12-08T16:46:34.820Z,1.90
2022-12-08T16:49:01.673Z,-0.80
2022-12-08T16:51:28.629Z,-0.90
2022-12-08T16:53:56.978Z,-0.80
2022-12-08T16:56:29.007Z,0.00
2022-12-08T16:58:58.951Z,-0.90
2022-12-08T17:01:25.939Z,0.90
2022-12-08T17:04:22.392Z,-0.80
2022-12-08T17:06:39.525Z,-0.90
2022-12-08T17:09:06.367Z,-0.90
2022-12-08T17:11:36.231Z,-0.90
2022-12-08T17:14:06.034Z,-0.90
2022-12-08T17:16:32.882Z,-0.90
2022-12-08T17:18:59.693Z,-0.90
2022-12-08T17:21:26.501Z,-0.90
2022-12-08T17:23:53.300Z,-1.00
2022-12-08T17:26:20.093Z,-1.00
2022-12-08T17:29:02.249Z,-1.00
2022-12-08T17:31:31.048Z,-1.00
2022-12-08T17:34:01.330Z,-1.10
2022-12-08T17:36:28.180Z,-1.10
2022-12-08T17:38:55.558Z,-1.10
2022-12-08T17:41:22.418Z,-1.10
2022-12-08T17:43:49.628Z,-1.10
2022-12-08T17:46:17.985Z,-1.30
2022-12-08T17:48:44.821Z,0.50
2022-12-08T17:51:11.650Z,-1.10
2022-12-08T17:53:40.641Z,-1.20
2022-12-08T17:56:13.238Z,-1.20
2022-12-08T17:58:40.047Z,-1.20
2022-12-08T18:01:10.723Z,-1.60
2022-12-08T18:03:37.800Z,-1.30
2022-12-08T18:06:09.124Z,-1.30
2022-12-08T18:08:36.230Z,-1.30
2022-12-08T18:11:03.674Z,-1.50
2022-12-08T18:13:30.587Z,-1.40
2022-12-08T18:15:57.357Z,1.50
2022-12-08T18:18:24.180Z,-1.50
2022-12-08T18:20:51.005Z,-1.50
2022-12-08T18:23:18.038Z,-1.60
2022-12-08T18:25:44.933Z,-1.60
2022-12-08T18:28:11.735Z,-1.90
2022-12-08T18:30:39.621Z,-1.80
2022-12-08T18:33:06.917Z,-1.70
2022-12-08T18:35:33.680Z,-2.20
2022-12-08T18:38:00.539Z,-1.90
2022-12-08T18:40:28.075Z,-1.70
2022-12-08T18:42:55.090Z,-1.70
2022-12-08T18:45:22.855Z,-1.80
2022-12-08T18:47:50.461Z,-1.80
2022-12-08T18:50:17.564Z,-1.80
2022-12-08T18:52:45.139Z,-1.80
2022-12-08T18:55:11.961Z,1.50
2022-12-08T18:57:39.505Z,-1.80
2022-12-08T19:00:07.758Z,-1.80
2022-12-08T19:02:36.047Z,-1.80
2022-12-08T19:05:03.074Z,-1.70
2022-12-08T19:07:29.973Z,0.00
2022-12-08T19:09:56.966Z,-1.70
2022-12-08T19:12:24.211Z,-1.70
2022-12-08T19:14:51.217Z,-1.70
2022-12-08T19:17:18.018Z,-1.60
2022-12-08T19:19:44.847Z,-1.70
2022-12-08T19:22:13.440Z,-1.70
2022-12-08T19:24:40.264Z,-1.80
2022-12-08T19:27:07.172Z,-1.60
2022-12-08T19:29:33.991Z,-1.60
2022-12-08T19:32:00.922Z,-1.70
2022-12-08T19:34:27.772Z,-1.70
2022-12-08T19:36:54.621Z,-1.70
2022-12-08T19:39:41.058Z,-1.60
2022-12-08T19:42:34.136Z,-1.70
2022-12-08T19:45:07.103Z,-1.60
2022-12-08T19:47:34.152Z,-1.60
2022-12-08T19:50:19.672Z,-1.60
2022-12-08T19:52:46.493Z,-1.50
2022-12-08T19:55:13.574Z,-1.60
2022-12-08T19:57:40.448Z,-1.60
2022-12-08T20:00:08.458Z,-1.60
2022-12-08T20:02:36.745Z,-1.50
2022-12-08T20:05:04.935Z,-1.60
2022-12-08T20:07:31.792Z,-1.60
2022-12-08T20:09:58.590Z,-1.60
2022-12-08T20:12:25.407Z,-1.80
2022-12-08T20:14:52.746Z,-1.60
2022-12-08T20:17:19.595Z,-1.60
2022-12-08T20:19:46.532Z,-1.60
2022-12-08T20:22:13.310Z,-1.80
2022-12-08T20:24:40.135Z,-0.90
2022-12-08T20:27:07.031Z,1.90
2022-12-08T20:29:33.949Z,-0.40
2022-12-08T20:32:00.817Z,-1.60
2022-12-08T20:34:27.788Z,1.10
2022-12-08T20:36:54.675Z,1.10
2022-12-08T20:39:21.537Z,-1.60
2022-12-08T20:41:48.387Z,-1.60
2022-12-08T20:44:15.306Z,-1.70
2022-12-08T20:46:47.768Z,-1.50
2022-12-08T20:49:16.132Z,-1.60
2022-12-08T20:51:44.489Z,-1.50
2022-12-08T20:54:11.603Z,-1.50
2022-12-08T20:56:42.053Z,-1.50
2022-12-08T20:59:18.162Z,-1.60
2022-12-08T21:01:45.246Z,-1.40
2022-12-08T21:04:12.904Z,-1.40
2022-12-08T21:06:39.960Z,-1.40
2022-12-08T21:09:07.293Z,-1.30
2022-12-08T21:11:34.447Z,-1.30
2022-12-08T21:14:01.507Z,-1.40
2022-12-08T21:16:28.424Z,-1.30
2022-12-08T21:18:55.332Z,-1.20
2022-12-08T21:21:22.352Z,-1.20
2022-12-08T21:23:49.257Z,-1.20
2022-12-08T21:26:21.074Z,-1.10
2022-12-08T21:28:48.000Z,-1.10
2022-12-08T21:31:16.952Z,-1.00
2022-12-08T21:33:44.089Z,-1.00
2022-12-08T21:36:12.759Z,-1.00
2022-12-08T21:38:40.126Z,-1.00
2022-12-08T21:41:11.949Z,1.70
2022-12-08T21:43:39.121Z,0.40
2022-12-08T21:46:06.240Z,0.80
2022-12-08T21:48:33.464Z,-0.90
2022-12-08T21:51:04.735Z,-0.90
2022-12-08T21:53:31.709Z,-0.80
2022-12-08T21:55:58.515Z,-0.80
2022-12-08T21:58:26.420Z,-0.80
2022-12-08T22:00:53.519Z,0.90
2022-12-08T22:03:20.743Z,-0.70
2022-12-08T22:05:47.779Z,-0.80
2022-12-08T22:08:14.805Z,-0.70
2022-12-08T22:10:46.333Z,-0.90
2022-12-08T22:13:13.227Z,-0.70
2022-12-08T22:15:40.236Z,-0.70
2022-12-08T22:18:08.591Z,-0.70
2022-12-08T22:20:39.532Z,-0.80
2022-12-08T22:23:09.274Z,2.20
2022-12-08T22:25:36.213Z,-0.80
2022-12-08T22:28:04.246Z,-0.80
2022-12-08T22:30:37.244Z,-0.80
2022-12-08T22:33:05.881Z,-0.80
2022-12-08T22:35:32.772Z,-0.70
2022-12-08T22:37:59.683Z,-0.70
2022-12-08T22:40:26.647Z,-0.80
2022-12-08T22:42:53.779Z,-0.90
2022-12-08T22:45:20.744Z,-0.80
2022-12-08T22:47:47.792Z,-1.10
2022-12-08T22:50:14.941Z,-0.80
2022-12-08T22:52:42.098Z,-0.90
2022-12-08T22:55:09.411Z,-0.80
2022-12-08T22:57:36.270Z,-0.80
2022-12-08T23:00:06.029Z,-0.90
2022-12-08T23:02:33.117Z,-0.90
2022-12-08T23:05:00.485Z,-1.20
2022-12-08T23:07:27.643Z,-0.90
2022-12-08T23:09:54.589Z,-0.90
2022-12-08T23:12:21.464Z,-0.90
2022-12-08T23:14:48.352Z,-1.00
2022-12-08T23:17:15.246Z,-1.10
2022-12-08T23:19:42.300Z,-1.10
2022-12-08T23:22:09.096Z,-1.10
2022-12-08T23:24:35.865Z,-1.10
2022-12-08T23:27:02.673Z,2.00
2022-12-08T23:29:29.431Z,-1.10
2022-12-08T23:31:56.632Z,-1.20
2022-12-08T23:34:23.548Z,-1.20
2022-12-08T23:36:50.331Z,-1.40
2022-12-08T23:39:17.222Z,-1.10
2022-12-08T23:41:44.073Z,-1.10
2022-12-08T23:44:12.101Z,-1.10
2022-12-08T23:46:39.281Z,-1.10
2022-12-08T23:49:06.265Z,-1.10
2022-12-08T23:51:33.023Z,-1.10
2022-12-08T23:53:59.843Z,-1.10
2022-12-08T23:56:30.231Z,-1.10
2022-12-08T23:58:57.580Z,0.70
